Time;durP1;ratioP1;P1;durP2;ratioP2;P2;SDS_P1;SDS_P2;PMS_P1;PMS_P2;Temp;Humidity;BMP_temperature;BMP_pressure;BME280_temperature;BME280_humidity;BME280_pressure;Samples;Min_cycle;Max_cycle;Signal;HPM_P1;HPM_P2
2022/06/19 00:01:02;;;;;;;3.63;3.28;;;24.70;74.70;;;;;;5053827;28;20086;-73
2022/06/19 00:03:36;;;;;;;3.75;3.45;;;24.60;74.70;;;;;;5053737;28;20391;-73
2022/06/19 00:06:02;;;;;;;4.13;3.83;;;24.60;74.80;;;;;;5053783;28;20055;-73
2022/06/19 00:08:29;;;;;;;3.05;2.85;;;24.60;75.10;;;;;;5053492;28;20070;-73
2022/06/19 00:10:56;;;;;;;3.88;3.58;;;24.50;75.00;;;;;;5052149;28;20056;-73
2022/06/19 00:13:21;;;;;;;6.90;3.67;;;24.60;75.30;;;;;;5053484;28;20029;-73
2022/06/19 00:15:47;;;;;;;3.53;3.20;;;24.60;75.40;;;;;;5053436;28;20510;-73
2022/06/19 00:18:14;;;;;;;3.00;2.85;;;24.50;75.70;;;;;;5053062;28;20032;-73
2022/06/19 00:20:39;;;;;;;3.75;3.53;;;24.50;75.90;;;;;;5053137;28;20052;-73
2022/06/19 00:23:05;;;;;;;7.45;3.80;;;24.40;76.00;;;;;;5053481;28;20098;-73
2022/06/19 00:25:31;;;;;;;5.40;3.42;;;24.40;76.30;;;;;;5052501;28;20406;-73
2022/06/19 00:27:57;;;;;;;3.70;3.42;;;24.40;76.40;;;;;;5053142;28;20032;-73
2022/06/19 00:30:23;;;;;;;3.42;3.17;;;24.30;76.60;;;;;;5051842;28;20033;-73
2022/06/19 00:32:48;;;;;;;4.18;3.45;;;24.30;76.70;;;;;;5053073;28;20025;-73
2022/06/19 00:35:14;;;;;;;3.95;3.55;;;24.30;76.90;;;;;;5053208;28;20087;-73
2022/06/19 00:37:40;;;;;;;4.18;3.78;;;24.30;76.80;;;;;;5052895;28;20017;-73
2022/06/19 00:40:09;;;;;;;3.50;3.20;;;24.30;77.00;;;;;;5052795;28;20029;-73
2022/06/19 00:42:35;;;;;;;3.38;3.08;;;24.30;77.20;;;;;;5052838;28;20013;-73
2022/06/19 00:45:03;;;;;;;5.43;3.53;;;24.30;77.30;;;;;;5053008;28;20025;-73
2022/06/19 00:47:34;;;;;;;3.65;3.35;;;24.20;77.60;;;;;;5052631;28;20025;-73
2022/06/19 00:50:19;;;;;;;5.57;3.42;;;24.20;77.90;;;;;;5053132;28;20052;-73
2022/06/19 00:52:46;;;;;;;3.80;2.90;;;24.10;78.20;;;;;;5052637;28;20100;-73
2022/06/19 00:55:20;;;;;;;3.40;3.22;;;24.10;78.60;;;;;;5052762;28;20031;-73
2022/06/19 00:57:51;;;;;;;3.83;3.53;;;24.00;78.90;;;;;;5052379;28;20437;-73
2022/06/19 01:00:23;;;;;;;10.93;4.03;;;23.90;79.30;;;;;;5051164;28;20037;-73
2022/06/19 01:02:50;;;;;;;3.63;3.22;;;24.00;79.50;;;;;;5051183;28;20025;-73
2022/06/19 01:05:17;;;;;;;4.53;4.13;;;24.00;79.30;;;;;;5052330;28;20024;-73
2022/06/19 01:07:44;;;;;;;4.40;4.00;;;23.90;79.30;;;;;;5052406;28;20056;-73
2022/06/19 01:10:13;;;;;;;4.15;3.47;;;23.90;79.50;;;;;;5052274;28;20048;-73
2022/06/19 01:12:43;;;;;;;5.90;3.20;;;23.90;79.80;;;;;;5052290;28;20411;-73
2022/06/19 01:15:11;;;;;;;4.80;3.53;;;23.90;79.80;;;;;;5051627;28;20143;-73
2022/06/19 01:17:38;;;;;;;4.65;3.70;;;23.90;79.80;;;;;;5052014;28;20514;-73
2022/06/19 01:20:09;;;;;;;4.03;3.50;;;23.90;80.20;;;;;;5052046;28;20021;-73
2022/06/19 01:23:00;;;;;;;3.63;3.42;;;23.90;80.60;;;;;;5050851;28;20021;-73
2022/06/19 01:25:32;;;;;;;5.28;3.85;;;23.80;80.80;;;;;;5037580;28;20029;-73
2022/06/19 01:31:07;;;;;;;5.20;3.72;;;23.70;81.30;;;;;;5033707;28;20552;-73
2022/06/19 01:33:47;;;;;;;10.17;4.00;;;23.70;81.50;;;;;;5044419;28;20033;-73
2022/06/19 01:36:16;;;;;;;3.63;3.38;;;23.60;81.50;;;;;;5043248;28;20317;-73
2022/06/19 01:38:48;;;;;;;3.58;3.38;;;23.60;82.00;;;;;;5047543;28;20021;-73
2022/06/19 01:41:18;;;;;;;4.30;3.25;;;23.60;82.00;;;;;;5045444;28;20410;-73
2022/06/19 01:43:44;;;;;;;4.03;3.30;;;23.70;82.20;;;;;;5047146;28;20033;-73
2022/06/19 01:46:10;;;;;;;3.85;3.45;;;23.60;82.20;;;;;;5044129;28;20108;-73
2022/06/19 01:48:40;;;;;;;4.00;3.78;;;23.60;82.60;;;;;;5047494;28;20029;-73
2022/06/19 01:51:06;;;;;;;3.92;3.22;;;23.60;82.50;;;;;;5044457;28;20492;-73
2022/06/19 01:53:59;;;;;;;3.72;3.42;;;23.60;82.50;;;;;;5045953;28;20028;-73
2022/06/19 01:56:29;;;;;;;3.42;3.22;;;23.60;82.70;;;;;;5044037;28;20631;-73
2022/06/19 01:59:09;;;;;;;5.40;3.58;;;23.60;83.00;;;;;;5047490;28;20049;-73
2022/06/19 02:01:39;;;;;;;4.25;3.20;;;23.60;83.10;;;;;;5044027;28;20446;-73
2022/06/19 02:04:07;;;;;;;4.20;3.85;;;23.50;83.10;;;;;;5046115;28;20433;-73
2022/06/19 02:06:43;;;;;;;3.83;3.60;;;23.40;83.50;;;;;;5033555;28;20010;-73
2022/06/19 02:09:17;;;;;;;3.65;3.38;;;23.50;83.80;;;;;;5025376;28;20087;-73
2022/06/19 02:11:43;;;;;;;3.63;3.15;;;23.50;83.50;;;;;;5041583;28;20025;-73
2022/06/19 02:14:11;;;;;;;3.85;3.55;;;23.50;83.70;;;;;;5027939;28;20029;-73
2022/06/19 02:16:40;;;;;;;4.03;3.40;;;23.50;83.60;;;;;;5024357;28;20025;-73
2022/06/19 02:19:07;;;;;;;3.90;3.53;;;23.50;83.70;;;;;;5026925;28;20064;-73
2022/06/19 02:21:48;;;;;;;3.83;3.63;;;23.50;83.60;;;;;;5024344;28;20022;-73
2022/06/19 02:24:19;;;;;;;5.10;3.55;;;23.50;83.90;;;;;;5026479;28;20044;-73
2022/06/19 02:26:47;;;;;;;4.13;3.83;;;23.50;84.20;;;;;;5056739;28;20037;-73
2022/06/19 02:29:16;;;;;;;3.47;3.17;;;23.40;84.20;;;;;;5026019;28;20571;-73
2022/06/19 02:31:48;;;;;;;3.83;3.50;;;23.40;84.40;;;;;;5024878;28;20017;-73
2022/06/19 02:34:24;;;;;;;4.55;3.70;;;23.40;84.30;;;;;;5025765;28;20549;-73
2022/06/19 02:36:59;;;;;;;3.90;3.60;;;23.30;84.50;;;;;;5027280;28;20376;-73
2022/06/19 02:39:48;;;;;;;3.60;3.40;;;23.30;84.80;;;;;;5031095;28;20031;-73
2022/06/19 02:42:20;;;;;;;4.05;3.85;;;23.30;85.10;;;;;;5031431;28;20026;-73
2022/06/19 02:44:54;;;;;;;6.53;3.60;;;23.20;85.50;;;;;;5030885;28;20026;-73
2022/06/19 02:47:22;;;;;;;4.05;3.70;;;23.20;85.70;;;;;;5031164;28;20022;-73
2022/06/19 02:49:48;;;;;;;3.53;3.15;;;23.20;86.50;;;;;;5033768;28;20018;-73
2022/06/19 02:52:14;;;;;;;3.90;3.70;;;23.20;85.90;;;;;;5034939;28;20022;-73
2022/06/19 02:54:40;;;;;;;3.40;3.20;;;23.20;86.30;;;;;;5035146;28;20026;-73
2022/06/19 02:57:09;;;;;;;4.05;3.75;;;23.20;86.30;;;;;;5035155;28;20071;-73
2022/06/19 02:59:35;;;;;;;3.78;3.50;;;23.20;86.30;;;;;;5033574;28;20134;-73
2022/06/19 03:02:00;;;;;;;3.60;3.30;;;23.20;86.30;;;;;;5034686;28;20034;-73
2022/06/19 03:04:36;;;;;;;3.70;3.40;;;23.20;86.50;;;;;;5035043;28;20160;-73
2022/06/19 03:07:02;;;;;;;6.68;4.10;;;23.10;86.60;;;;;;5034711;28;20029;-73
2022/06/19 03:09:27;;;;;;;3.80;3.50;;;23.20;86.60;;;;;;5034816;28;20018;-73
2022/06/19 03:11:53;;;;;;;4.05;3.83;;;23.10;86.80;;;;;;5052534;28;20033;-73
2022/06/19 03:14:19;;;;;;;4.00;3.63;;;23.10;86.90;;;;;;5053320;28;20033;-73
2022/06/19 03:16:45;;;;;;;3.97;3.67;;;23.10;87.10;;;;;;5052849;28;20025;-73
2022/06/19 03:19:12;;;;;;;4.35;4.15;;;23.00;87.30;;;;;;5053873;28;20100;-73
2022/06/19 03:21:38;;;;;;;3.72;3.35;;;23.00;87.60;;;;;;5054554;28;20364;-73
2022/06/19 03:24:04;;;;;;;6.85;3.75;;;23.00;87.70;;;;;;5054485;28;20035;-73
2022/06/19 03:26:30;;;;;;;5.03;3.55;;;23.00;87.90;;;;;;5053057;28;20048;-73
2022/06/19 03:28:57;;;;;;;4.20;3.88;;;23.00;88.10;;;;;;5052407;28;20390;-73
2022/06/19 03:31:25;;;;;;;4.25;3.95;;;22.90;88.50;;;;;;5052726;28;20033;-73
2022/06/19 03:33:50;;;;;;;7.78;4.45;;;22.90;88.70;;;;;;5052976;28;20021;-73
2022/06/19 03:36:17;;;;;;;4.47;4.18;;;22.90;89.00;;;;;;5052985;28;20029;-73
2022/06/19 03:38:43;;;;;;;4.72;4.43;;;22.80;89.20;;;;;;5052897;28;20478;-73
2022/06/19 03:41:09;;;;;;;6.47;3.80;;;22.80;89.80;;;;;;5053387;28;20044;-73
2022/06/19 03:43:35;;;;;;;4.45;4.10;;;22.80;90.00;;;;;;5052661;28;20013;-73
2022/06/19 03:46:03;;;;;;;5.40;3.70;;;22.80;90.00;;;;;;5054201;28;20021;-73
2022/06/19 03:48:29;;;;;;;5.43;4.10;;;22.90;90.10;;;;;;5052815;28;20053;-73
2022/06/19 03:50:54;;;;;;;3.63;3.42;;;22.90;90.20;;;;;;5054034;28;20502;-73
2022/06/19 03:53:20;;;;;;;4.85;4.35;;;22.90;90.10;;;;;;5054032;28;20025;-72
2022/06/19 03:55:47;;;;;;;3.88;3.42;;;22.90;90.20;;;;;;5053840;28;20033;-73
2022/06/19 03:58:13;;;;;;;4.72;3.85;;;22.90;90.30;;;;;;5052272;28;20060;-73
2022/06/19 04:00:39;;;;;;;5.82;3.83;;;22.90;90.30;;;;;;5051467;28;20106;-73
2022/06/19 04:03:06;;;;;;;5.18;3.97;;;22.90;90.40;;;;;;5053887;28;20024;-73
2022/06/19 04:05:32;;;;;;;4.38;4.07;;;22.90;90.40;;;;;;5053305;28;20448;-73
2022/06/19 04:07:58;;;;;;;4.43;4.13;;;22.90;90.50;;;;;;5053550;28;20032;-73
2022/06/19 04:10:24;;;;;;;4.53;4.18;;;22.90;90.70;;;;;;5053791;28;20410;-73
2022/06/19 04:12:50;;;;;;;4.25;3.95;;;22.90;90.90;;;;;;5052200;28;20065;-73
2022/06/19 04:15:16;;;;;;;4.25;4.05;;;22.90;91.10;;;;;;5053497;28;20035;-73
2022/06/19 04:17:41;;;;;;;7.10;4.13;;;22.80;91.50;;;;;;5053522;28;20025;-73
2022/06/19 04:20:09;;;;;;;4.95;4.45;;;22.80;91.40;;;;;;5053315;28;20021;-73
2022/06/19 04:22:36;;;;;;;4.68;4.10;;;22.80;91.40;;;;;;5053374;28;20025;-73
2022/06/19 04:25:02;;;;;;;5.53;4.20;;;22.80;91.50;;;;;;5053457;28;20025;-73
2022/06/19 04:27:28;;;;;;;4.85;4.38;;;22.90;91.50;;;;;;5051822;28;20017;-73
2022/06/19 04:29:54;;;;;;;5.63;4.47;;;22.80;91.70;;;;;;5053281;28;20025;-73
2022/06/19 04:32:20;;;;;;;4.35;4.05;;;22.90;91.80;;;;;;5051990;28;20051;-73
2022/06/19 04:34:45;;;;;;;5.25;4.22;;;22.90;91.80;;;;;;5053346;28;20025;-73
2022/06/19 04:37:11;;;;;;;4.38;4.10;;;22.90;91.80;;;;;;5052933;28;20104;-73
2022/06/19 04:39:37;;;;;;;4.70;4.13;;;22.90;91.90;;;;;;5053249;28;20021;-73
2022/06/19 04:42:06;;;;;;;4.88;4.47;;;22.90;91.90;;;;;;5052889;28;20115;-73
2022/06/19 04:44:31;;;;;;;5.28;4.05;;;23.00;91.90;;;;;;5052998;28;20622;-73
2022/06/19 04:46:57;;;;;;;4.90;3.67;;;23.00;91.70;;;;;;5051774;28;20021;-73
2022/06/19 04:49:23;;;;;;;4.47;4.07;;;23.10;91.70;;;;;;5052707;28;20017;-73
2022/06/19 04:51:48;;;;;;;4.55;4.20;;;23.10;91.80;;;;;;5051546;28;20043;-73
2022/06/19 04:54:14;;;;;;;4.93;3.75;;;23.20;91.80;;;;;;5051583;28;20120;-73
2022/06/19 04:56:40;;;;;;;8.65;4.22;;;23.20;91.80;;;;;;5051566;28;20033;-73
2022/06/19 04:59:07;;;;;;;4.05;3.75;;;23.20;91.90;;;;;;5052294;28;20075;-73
2022/06/19 05:01:35;;;;;;;4.30;4.00;;;23.30;92.00;;;;;;5052762;28;20040;-73
2022/06/19 05:04:07;;;;;;;5.47;3.85;;;23.30;91.90;;;;;;5052761;28;20023;-73
2022/06/19 05:06:34;;;;;;;4.40;4.10;;;23.30;91.70;;;;;;5052676;28;20059;-73
2022/06/19 05:09:00;;;;;;;4.00;3.70;;;23.40;91.80;;;;;;5052316;28;20014;-73
2022/06/19 05:11:28;;;;;;;4.47;4.10;;;23.40;91.60;;;;;;5052245;28;20021;-73
2022/06/19 05:13:54;;;;;;;4.50;4.20;;;23.40;91.70;;;;;;5052419;28;20017;-73
2022/06/19 05:16:22;;;;;;;7.00;4.07;;;23.50;91.70;;;;;;5052548;28;20479;-73
2022/06/19 05:18:50;;;;;;;4.18;3.88;;;23.50;91.70;;;;;;5052187;28;20025;-73
2022/06/19 05:21:16;;;;;;;3.53;3.33;;;23.60;91.70;;;;;;5051787;28;20024;-73
2022/06/19 05:23:45;;;;;;;4.13;3.80;;;23.70;91.60;;;;;;5052120;28;20026;-73
2022/06/19 05:26:22;;;;;;;4.10;3.80;;;23.60;91.20;;;;;;5051014;28;20492;-73
2022/06/19 05:28:50;;;;;;;6.35;3.90;;;23.70;91.20;;;;;;5052044;28;20025;-73
2022/06/19 05:31:16;;;;;;;8.45;3.92;;;23.80;91.10;;;;;;5050828;28;20036;-73
2022/06/19 05:33:43;;;;;;;5.07;3.60;;;23.80;90.70;;;;;;5052307;28;20028;-73
2022/06/19 05:36:09;;;;;;;3.55;3.35;;;23.80;90.80;;;;;;5050692;28;20119;-73
2022/06/19 05:38:35;;;;;;;4.00;3.63;;;23.90;90.70;;;;;;5051808;28;20036;-73
2022/06/19 05:41:01;;;;;;;3.83;3.45;;;24.00;90.80;;;;;;5051974;28;20021;-72
2022/06/19 05:43:30;;;;;;;5.45;3.58;;;24.00;90.50;;;;;;5051970;28;20025;-73
2022/06/19 05:45:59;;;;;;;6.43;4.20;;;24.00;90.60;;;;;;5051766;28;20044;-73
2022/06/19 05:48:26;;;;;;;4.03;3.63;;;24.10;90.40;;;;;;5050433;28;20104;-73
2022/06/19 05:51:27;;;;;;;3.88;3.60;;;24.20;90.10;;;;;;5050549;28;20120;-73
2022/06/19 05:53:57;;;;;;;3.78;3.45;;;24.30;90.00;;;;;;5045991;28;20486;-73
2022/06/19 05:56:23;;;;;;;3.90;3.58;;;24.40;90.10;;;;;;5050570;28;20032;-73
2022/06/19 05:58:49;;;;;;;5.00;3.30;;;24.40;89.60;;;;;;5050083;28;20132;-73
2022/06/19 06:01:17;;;;;;;2.90;2.67;;;24.50;89.50;;;;;;5051513;28;20111;-73
2022/06/19 06:03:43;;;;;;;6.18;3.17;;;24.60;89.20;;;;;;5050305;28;20035;-73
2022/06/19 06:06:14;;;;;;;3.53;2.92;;;24.70;88.20;;;;;;5051350;28;20100;-73
2022/06/19 06:08:40;;;;;;;2.92;2.75;;;24.70;87.70;;;;;;5051471;28;20021;-73
2022/06/19 06:11:06;;;;;;;3.40;3.10;;;24.80;87.10;;;;;;5051440;28;20106;-73
2022/06/19 06:13:33;;;;;;;2.85;2.65;;;24.90;86.60;;;;;;5051468;28;20096;-73
2022/06/19 06:15:59;;;;;;;3.30;3.10;;;25.00;86.50;;;;;;5051576;28;20032;-73
2022/06/19 06:18:25;;;;;;;4.45;3.28;;;25.00;86.60;;;;;;5051350;28;20367;-73
2022/06/19 06:21:00;;;;;;;3.72;3.42;;;25.10;86.30;;;;;;5051358;28;20029;-73
2022/06/19 06:23:27;;;;;;;8.48;3.08;;;25.10;85.80;;;;;;5049683;28;20037;-73
2022/06/19 06:25:59;;;;;;;5.50;2.72;;;25.20;85.50;;;;;;5051462;28;20009;-73
2022/06/19 06:28:25;;;;;;;2.53;2.28;;;25.30;83.50;;;;;;5051234;28;20503;-73
2022/06/19 06:30:51;;;;;;;4.20;2.90;;;25.30;80.60;;;;;;5051539;28;20096;-73
2022/06/19 06:33:17;;;;;;;3.22;2.88;;;25.40;80.30;;;;;;5051308;28;20025;-73
2022/06/19 06:35:43;;;;;;;3.90;2.47;;;25.40;78.60;;;;;;5050017;28;20029;-73
2022/06/19 06:38:08;;;;;;;3.17;2.38;;;25.40;74.40;;;;;;5052355;28;20525;-73
2022/06/19 06:40:34;;;;;;;2.83;2.53;;;25.50;68.30;;;;;;5051175;28;20036;-73
2022/06/19 06:43:00;;;;;;;2.80;2.40;;;25.60;69.20;;;;;;5052509;28;20022;-73
2022/06/19 06:45:25;;;;;;;2.30;2.20;;;25.70;70.10;;;;;;5052628;28;20093;-73
2022/06/19 06:47:51;;;;;;;6.40;3.20;;;25.70;69.30;;;;;;5051974;28;20025;-73
2022/06/19 06:50:17;;;;;;;2.65;2.42;;;25.70;70.80;;;;;;5051987;28;20025;-73
2022/06/19 06:52:43;;;;;;;2.47;2.28;;;25.80;67.10;;;;;;5051998;28;20096;-73
2022/06/19 06:55:09;;;;;;;4.50;2.30;;;25.80;68.10;;;;;;5051914;28;20175;-73
2022/06/19 06:57:35;;;;;;;2.22;2.03;;;25.80;68.00;;;;;;5051498;28;20024;-73
2022/06/19 07:00:02;;;;;;;2.50;2.30;;;25.90;66.30;;;;;;5051548;28;20053;-73
2022/06/19 07:02:28;;;;;;;4.03;2.58;;;26.00;68.60;;;;;;5050720;28;20510;-74
2022/06/19 07:04:53;;;;;;;3.40;2.60;;;26.00;69.10;;;;;;5051914;28;20482;-73
2022/06/19 07:07:19;;;;;;;2.00;1.90;;;26.10;68.60;;;;;;5052258;28;20021;-73
2022/06/19 07:09:45;;;;;;;1.90;1.80;;;26.10;67.00;;;;;;5050878;28;20099;-73
2022/06/19 07:12:10;;;;;;;3.55;1.75;;;26.20;63.80;;;;;;5052296;28;20025;-73
2022/06/19 07:14:36;;;;;;;4.43;1.80;;;26.20;63.50;;;;;;5052269;28;20501;-73
2022/06/19 07:17:02;;;;;;;1.92;1.83;;;26.20;62.80;;;;;;5051160;28;20078;-73
2022/06/19 07:19:28;;;;;;;1.52;1.52;;;26.20;62.00;;;;;;5051676;28;20509;-73
2022/06/19 07:21:54;;;;;;;2.30;2.00;;;26.30;60.90;;;;;;5051437;28;20483;-73
2022/06/19 07:24:19;;;;;;;2.63;2.05;;;26.30;59.40;;;;;;5051460;28;20363;-73
2022/06/19 07:26:45;;;;;;;2.22;1.85;;;26.40;59.10;;;;;;5051596;28;20129;-73
2022/06/19 07:29:11;;;;;;;1.63;1.52;;;26.40;58.10;;;;;;5051640;28;20013;-73
2022/06/19 07:31:37;;;;;;;3.38;1.73;;;26.60;56.20;;;;;;5051220;28;20517;-73
2022/06/19 07:34:04;;;;;;;1.90;1.80;;;26.60;56.20;;;;;;5051885;28;20394;-73
2022/06/19 07:36:30;;;;;;;1.77;1.67;;;26.60;55.40;;;;;;5051680;28;20486;-73
2022/06/19 07:38:56;;;;;;;5.03;2.08;;;26.70;56.50;;;;;;5054709;28;20170;-73
2022/06/19 07:41:21;;;;;;;1.85;1.75;;;26.80;57.90;;;;;;5039407;28;20387;-73
2022/06/19 07:43:50;;;;;;;1.85;1.67;;;26.80;58.30;;;;;;5034699;28;20423;-73
2022/06/19 07:46:17;;;;;;;2.00;1.40;;;26.90;56.00;;;;;;5034670;28;20044;-73
2022/06/19 07:51:28;;;;;;;2.25;1.60;;;26.90;54.30;;;;;;5034467;28;20056;-73
2022/06/19 07:53:54;;;;;;;1.70;1.60;;;26.90;53.90;;;;;;5034424;28;20483;-73
2022/06/19 07:56:20;;;;;;;1.90;1.65;;;26.90;54.70;;;;;;5034182;28;20029;-73
2022/06/19 07:58:46;;;;;;;1.83;1.73;;;27.00;56.80;;;;;;5034007;28;20049;-73
2022/06/19 08:01:12;;;;;;;2.65;1.90;;;27.10;57.60;;;;;;5034146;28;20021;-73
2022/06/19 08:03:38;;;;;;;1.80;1.70;;;27.10;59.10;;;;;;5034050;28;20519;-73
2022/06/19 08:06:04;;;;;;;1.67;1.58;;;27.10;56.00;;;;;;5033981;28;20029;-73
2022/06/19 08:08:32;;;;;;;1.77;1.67;;;27.20;56.00;;;;;;5032765;28;20493;-73
2022/06/19 08:10:59;;;;;;;1.75;1.65;;;27.30;55.60;;;;;;5070073;28;20099;-73
2022/06/19 08:13:28;;;;;;;1.90;1.80;;;27.30;55.50;;;;;;5053723;28;20032;-73
2022/06/19 08:16:00;;;;;;;1.55;1.55;;;27.40;53.30;;;;;;5052417;28;20102;-73
2022/06/19 08:18:27;;;;;;;2.53;1.55;;;27.40;54.00;;;;;;5053613;28;20029;-73
2022/06/19 08:20:53;;;;;;;2.75;1.50;;;27.40;53.10;;;;;;5052323;28;20025;-73
2022/06/19 08:23:19;;;;;;;1.70;1.60;;;27.40;54.00;;;;;;5053623;28;20029;-73
2022/06/19 08:25:46;;;;;;;2.55;2.00;;;27.40;55.40;;;;;;5053581;28;20028;-73
2022/06/19 08:28:15;;;;;;;2.28;2.08;;;27.50;55.00;;;;;;5052257;28;20056;-73
2022/06/19 08:30:42;;;;;;;1.58;1.48;;;27.50;54.50;;;;;;5053634;28;20029;-73
2022/06/19 08:33:09;;;;;;;1.77;1.67;;;27.60;53.30;;;;;;5053562;28;20091;-73
2022/06/19 08:35:45;;;;;;;2.10;2.00;;;27.70;53.90;;;;;;5053413;28;20681;-73
2022/06/19 08:38:27;;;;;;;1.50;1.40;;;27.60;56.90;;;;;;5053323;28;20029;-73
2022/06/19 08:41:14;;;;;;;1.70;1.60;;;27.70;57.40;;;;;;5053150;28;20268;-73
2022/06/19 08:44:07;;;;;;;1.63;1.50;;;27.70;57.00;;;;;;5053105;28;20079;-73
2022/06/19 08:47:12;;;;;;;1.95;1.85;;;27.80;57.20;;;;;;5052813;28;20024;-73
2022/06/19 08:50:17;;;;;;;2.05;1.67;;;27.80;57.60;;;;;;5052980;28;20029;-73
2022/06/19 08:52:59;;;;;;;3.13;1.70;;;27.90;55.90;;;;;;5053021;28;20371;-73
2022/06/19 08:55:40;;;;;;;1.23;1.23;;;28.00;55.70;;;;;;5052908;28;20471;-73
2022/06/19 08:58:14;;;;;;;2.63;1.35;;;28.10;55.70;;;;;;5052794;28;20044;-73
2022/06/19 09:00:51;;;;;;;3.92;1.73;;;28.10;54.20;;;;;;5052891;28;20068;-73
2022/06/19 09:06:42;;;;;;;2.00;1.73;;;28.10;55.80;;;;;;5052753;28;20146;-73
2022/06/19 09:09:30;;;;;;;3.92;1.88;;;28.30;53.70;;;;;;5052760;28;20484;-73
2022/06/19 09:12:14;;;;;;;2.22;2.03;;;28.40;52.30;;;;;;5052753;28;20017;-73
2022/06/19 09:14:48;;;;;;;1.70;1.60;;;28.40;53.90;;;;;;5052649;28;20108;-73
2022/06/19 09:17:30;;;;;;;1.80;1.70;;;28.60;53.50;;;;;;5052470;28;20021;-73
2022/06/19 09:20:08;;;;;;;1.92;1.83;;;28.50;51.30;;;;;;5052498;28;20025;-73
2022/06/19 09:22:56;;;;;;;3.00;1.80;;;28.50;52.00;;;;;;5052508;28;20029;-73
2022/06/19 09:25:44;;;;;;;1.67;1.58;;;28.50;52.80;;;;;;5051725;28;20009;-73
2022/06/19 09:28:22;;;;;;;9.23;1.90;;;28.40;52.20;;;;;;5052280;28;20363;-73
2022/06/19 09:31:10;;;;;;;1.98;1.70;;;28.40;52.10;;;;;;5051086;28;20087;-73
2022/06/19 09:33:49;;;;;;;2.00;1.80;;;28.60;54.70;;;;;;5052388;28;20441;-73
2022/06/19 09:36:41;;;;;;;3.72;1.88;;;28.70;54.80;;;;;;5052020;28;20029;-73
2022/06/19 09:39:22;;;;;;;2.08;1.98;;;28.70;54.30;;;;;;5052304;28;20041;-73
2022/06/19 09:41:58;;;;;;;2.38;1.70;;;28.60;55.00;;;;;;5051877;28;20271;-73
2022/06/19 09:44:56;;;;;;;2.00;1.80;;;28.80;52.90;;;;;;5052301;28;20013;-73
2022/06/19 09:47:25;;;;;;;2.28;2.08;;;28.70;51.40;;;;;;5046412;28;20036;-73
2022/06/19 09:50:26;;;;;;;1.80;1.65;;;28.80;51.80;;;;;;5051802;28;20021;-73
2022/06/19 09:52:56;;;;;;;1.50;1.40;;;28.90;54.20;;;;;;5051796;28;20498;-73
2022/06/19 09:55:55;;;;;;;1.88;1.63;;;29.00;53.60;;;;;;5051798;28;20029;-73
2022/06/19 09:58:40;;;;;;;1.92;1.83;;;29.10;53.10;;;;;;5046579;28;20056;-73
2022/06/19 10:01:07;;;;;;;4.15;2.10;;;29.10;50.40;;;;;;5051629;28;20031;-73
2022/06/19 10:03:40;;;;;;;1.20;1.20;;;29.10;51.90;;;;;;5051844;28;20013;-73
2022/06/19 10:06:12;;;;;;;1.45;1.35;;;29.20;55.00;;;;;;5050348;28;20437;-73
2022/06/19 10:08:58;;;;;;;3.78;1.63;;;29.30;53.90;;;;;;5051290;28;20064;-73
2022/06/19 10:11:29;;;;;;;3.83;1.55;;;29.30;50.70;;;;;;5050204;28;20079;-73
2022/06/19 10:14:00;;;;;;;1.42;1.33;;;29.30;50.60;;;;;;5051836;28;20053;-73
2022/06/19 10:16:37;;;;;;;;;;;29.50;51.20;;;;;;5050726;28;20029;-73
2022/06/19 10:19:14;;;;;;;2.38;2.28;;;29.50;53.30;;;;;;5051568;28;19904;-73
2022/06/19 10:22:13;;;;;;;2.33;1.92;;;29.50;54.00;;;;;;5051527;28;20372;-73
2022/06/19 10:24:51;;;;;;;1.60;1.50;;;29.50;51.80;;;;;;5047474;28;20082;-73
2022/06/19 10:27:43;;;;;;;3.30;2.00;;;29.70;50.40;;;;;;5051267;28;20426;-73
2022/06/19 10:30:22;;;;;;;1.55;1.45;;;29.70;50.30;;;;;;5039729;28;20029;-73
2022/06/19 10:33:18;;;;;;;4.13;1.63;;;29.80;51.10;;;;;;5051502;28;20525;-73
2022/06/19 10:35:48;;;;;;;3.30;1.70;;;29.80;50.60;;;;;;5051600;28;20146;-73
2022/06/19 10:38:46;;;;;;;1.75;1.65;;;29.90;50.00;;;;;;5051114;28;20025;-73
2022/06/19 10:45:03;;;;;;;2.78;1.77;;;30.40;53.50;;;;;;5051696;28;20091;-73
2022/06/19 10:48:02;;;;;;;1.60;1.50;;;30.50;50.90;;;;;;5049783;28;20025;-73
2022/06/19 10:51:01;;;;;;;2.45;1.27;;;30.50;50.10;;;;;;5051175;28;20027;-73
2022/06/19 10:53:49;;;;;;;1.90;1.80;;;30.60;52.00;;;;;;5049831;28;20029;-73
2022/06/19 10:56:32;;;;;;;6.45;2.28;;;30.90;50.50;;;;;;5050881;28;20393;-74
2022/06/19 10:58:59;;;;;;;18.02;11.10;;;30.90;48.00;;;;;;5050837;28;20041;-74
2022/06/19 11:04:25;;;;;;;4.90;2.03;;;30.80;51.00;;;;;;5052408;28;20553;-73
2022/06/19 11:06:54;;;;;;;1.92;1.83;;;31.00;49.70;;;;;;5052305;28;20021;-78
2022/06/19 11:09:29;;;;;;;2.60;2.05;;;31.00;48.30;;;;;;5052059;28;20035;-78
2022/06/19 11:12:11;;;;;;;4.85;1.50;;;31.10;47.70;;;;;;5035623;28;20479;-78
2022/06/19 11:14:54;;;;;;;2.42;1.77;;;31.20;48.90;;;;;;5035533;28;20030;-78
2022/06/19 11:17:30;;;;;;;4.03;1.98;;;31.20;47.60;;;;;;5035828;28;20116;-78
2022/06/19 11:19:56;;;;;;;3.08;1.55;;;31.20;46.40;;;;;;5036131;28;20030;-78
2022/06/19 11:22:25;;;;;;;3.17;1.80;;;31.20;47.30;;;;;;5036212;28;20458;-78
2022/06/19 11:24:52;;;;;;;2.13;1.88;;;31.30;47.30;;;;;;5036017;28;20025;-78
2022/06/19 11:27:25;;;;;;;1.85;1.75;;;31.50;49.10;;;;;;5036071;28;20018;-78
2022/06/19 11:29:53;;;;;;;3.38;2.40;;;31.60;49.40;;;;;;5035549;28;20034;-79
2022/06/19 11:32:26;;;;;;;4.70;1.90;;;31.70;47.90;;;;;;5036029;28;20541;-79
2022/06/19 11:35:07;;;;;;;3.78;1.90;;;31.80;49.80;;;;;;5035801;28;20063;-78
2022/06/19 11:37:48;;;;;;;2.10;1.90;;;31.90;49.00;;;;;;5035627;28;20026;-78
2022/06/19 11:40:26;;;;;;;2.73;1.60;;;31.90;46.90;;;;;;5041438;28;20437;-78
2022/06/19 11:42:58;;;;;;;3.03;1.40;;;31.90;45.40;;;;;;5055489;28;20017;-79
2022/06/19 11:45:36;;;;;;;6.97;2.15;;;32.00;45.80;;;;;;5054065;28;20048;-78
2022/06/19 11:48:06;;;;;;;4.13;1.95;;;32.00;45.70;;;;;;5055309;28;20036;-78
2022/06/19 11:50:44;;;;;;;3.35;1.73;;;32.20;45.90;;;;;;5054057;28;20067;-78
2022/06/19 11:53:15;;;;;;;2.40;2.30;;;32.30;46.90;;;;;;5055260;28;20028;-78
2022/06/19 11:56:11;;;;;;;4.70;2.03;;;32.50;46.20;;;;;;5054885;28;20029;-78
2022/06/19 11:58:43;;;;;;;1.92;1.80;;;32.50;44.40;;;;;;5051060;28;20049;-78
2022/06/19 12:01:15;;;;;;;5.18;1.80;;;32.40;44.40;;;;;;5055092;28;20029;-78
2022/06/19 12:03:45;;;;;;;1.70;1.60;;;32.60;46.20;;;;;;5055257;28;20021;-78
2022/06/19 12:06:12;;;;;;;3.33;2.42;;;32.80;45.00;;;;;;5055099;28;20025;-78
2022/06/19 12:09:00;;;;;;;2.78;1.67;;;32.80;43.90;;;;;;5055026;28;20044;-78
2022/06/19 12:11:40;;;;;;;9.35;1.58;;;33.00;44.70;;;;;;5039069;28;20387;-78
2022/06/19 12:14:12;;;;;;;6.25;1.83;;;33.10;44.10;;;;;;5035133;28;20036;-78
2022/06/19 12:16:39;;;;;;;2.00;1.90;;;33.20;44.10;;;;;;5053657;28;20028;-78
2022/06/19 12:19:28;;;;;;;4.38;2.35;;;33.40;45.30;;;;;;5054997;28;20400;-78
2022/06/19 12:22:03;;;;;;;4.72;1.98;;;33.60;45.70;;;;;;5054037;28;20479;-78
2022/06/19 12:24:43;;;;;;;3.95;1.90;;;33.70;43.50;;;;;;5054817;28;20032;-78
2022/06/19 12:27:17;;;;;;;2.63;1.73;;;34.00;42.60;;;;;;5054253;28;20023;-78
2022/06/19 12:29:59;;;;;;;1.50;1.40;;;34.10;42.40;;;;;;5052793;28;20021;-77
2022/06/19 12:32:33;;;;;;;2.47;2.13;;;34.00;40.50;;;;;;5051736;28;20415;-78
2022/06/19 12:35:06;;;;;;;3.15;1.40;;;34.10;42.00;;;;;;5049019;28;20484;-78
2022/06/19 12:37:39;;;;;;;4.50;1.95;;;34.10;40.40;;;;;;5051242;28;20025;-78
2022/06/19 12:40:16;;;;;;;3.42;1.92;;;34.20;41.40;;;;;;5052831;28;20021;-78
2022/06/19 12:43:16;;;;;;;2.85;1.30;;;34.30;42.20;;;;;;5050878;28;20367;-78
2022/06/19 12:45:56;;;;;;;2.58;2.10;;;34.50;41.30;;;;;;5048018;28;20041;-78
2022/06/19 12:48:28;;;;;;;4.82;1.75;;;34.50;42.30;;;;;;5054076;28;20021;-77
2022/06/19 12:51:18;;;;;;;4.93;1.45;;;34.70;41.30;;;;;;5054556;28;20466;-77
2022/06/19 12:53:56;;;;;;;4.72;1.67;;;34.70;39.80;;;;;;5054327;28;20079;-77
2022/06/19 12:56:27;;;;;;;3.00;1.50;;;34.70;40.10;;;;;;5053642;28;20028;-77
2022/06/19 12:58:59;;;;;;;;;;;34.70;40.30;;;;;;5052712;28;20048;-78
2022/06/19 13:01:36;;;;;;;1.70;1.60;;;34.80;41.40;;;;;;5053979;28;19920;-77
2022/06/19 13:04:39;;;;;;;1.73;1.63;;;35.10;42.30;;;;;;5053549;28;20017;-77
2022/06/19 13:07:22;;;;;;;2.97;1.67;;;35.30;42.30;;;;;;5053569;28;20028;-77
2022/06/19 13:10:02;;;;;;;3.88;2.10;;;35.10;39.90;;;;;;5053890;28;20028;-77
2022/06/19 13:13:10;;;;;;;2.35;1.17;;;35.30;39.30;;;;;;5052156;28;20079;-77
2022/06/19 13:15:39;;;;;;;6.28;1.80;;;35.30;38.20;;;;;;5045184;28;20064;-78
2022/06/19 13:18:08;;;;;;;2.00;1.90;;;35.30;38.90;;;;;;5052835;28;20024;-77
2022/06/19 13:20:56;;;;;;;6.05;2.03;;;35.50;40.00;;;;;;5053444;28;20103;-77
2022/06/19 13:23:43;;;;;;;3.85;1.63;;;35.50;38.90;;;;;;5053127;28;20104;-77
2022/06/19 13:29:29;;;;;;;4.53;1.52;;;35.40;37.10;;;;;;5053956;28;20040;-77
2022/06/19 13:32:00;;;;;;;1.90;1.77;;;35.40;37.30;;;;;;5053740;28;20025;-78